Terminal Aerodrome Forecast
Issued by NWS

Home | Current Version | Previous Version | Text Only | Print | Product List | Glossary Off
Versions: 1 2 3 4 5 6 7 8 9 10 11 12 13 14 15 16 17 18 19 20 21 22 23 24 25 26 27 28 29 30 31

000
FTUS43 KABR 231105 AAJ
TAFMBG
TAF AMD
KMBG 231105Z 2311/2406 13011KT P6SM VCTS FEW030CB BKN250
     FM231500 33011KT P6SM VCTS OVC060CB
     FM231800 31013G23KT P6SM BKN250
     FM240200 32008KT P6SM SKC=

USA.gov is the U.S. government's official web portal to all federal, state and local government web resources and services.